Accueil
METAR-TAF:

METAR-TAF

Aéroports :

Athènes, Grèce

Aéroport international d'Athènes Elefthérios-Venizélos

latitude: 37-56N, longitude: 023-56E, altitude: 94 m

Observation

Le bulletin a été fait il y a 37 minutes, à 02:50 UTC
Vent 3 kt de nord
Température 10°C
Humidité 66%
Pression 1015 hPa
Visibilité 10 km ou plus
pas de nuages en-dessous de 1500 mètres et pas de cumulonimbus.

METAR: LGAV 260250Z 35003KT CAVOK 10/04 Q1015 NOSIG

Heure: 06:27 (03:27 UTC)

Prévision

Le bulletin a été fait il y a 4 heures et 27 minutes, à 23:00 UTC
Prévision valable du 26 à 00 UTC au 26 à 24 UTC
Vent 5 kt de direction variable
Visibilité 10 km ou plus
Quelques nuages à une hauteur de 2500 ft
Evoluant progressivement
du 26 à 10 UTC au 26 à 12 UTC
Vent 10 kt de nord-est

TAF: LGAV 252300Z 2600/2624 VRB05KT 9999 FEW025 BECMG 2610/2612 04010KT

Observations et prévisions météorologiques de plus de 4000 aéroports (messages METAR et TAF).

Les stations disponibles sont représentées par des disques jaunes et rouges sur la carte.

Passer la souris dessus pour voir le nom de la station.

Cliquer dessus pour voir les observations et prévisions météorologiques.

Pour changer de carte: cliquez sur les boutons verts avec une croix noire pour zoomer, sur le bouton vert avec un tiret pour effectuer un zoom arrière, ou sur les flèches vertes pour les cartes adjacentes.


METAR-TAF: